sensor_id;sensor_type;location;lat;lon;timestamp;P1;durP1;ratioP1;P2;durP2;ratioP2
76039;SDS011;64736;50.462;4.850;2023-08-30T00:00:46;11.10;;;8.65;;
76039;SDS011;64736;50.462;4.850;2023-08-30T00:03:12;10.65;;;7.72;;
76039;SDS011;64736;50.462;4.850;2023-08-30T00:05:38;10.25;;;7.55;;
76039;SDS011;64736;50.462;4.850;2023-08-30T00:08:05;11.07;;;7.60;;
76039;SDS011;64736;50.462;4.850;2023-08-30T00:10:31;10.57;;;7.90;;
76039;SDS011;64736;50.462;4.850;2023-08-30T00:12:57;11.93;;;8.40;;
76039;SDS011;64736;50.462;4.850;2023-08-30T00:15:22;13.02;;;8.88;;
76039;SDS011;64736;50.462;4.850;2023-08-30T00:17:49;10.05;;;8.00;;
76039;SDS011;64736;50.462;4.850;2023-08-30T00:20:20;9.40;;;7.55;;
76039;SDS011;64736;50.462;4.850;2023-08-30T00:25:13;10.45;;;7.53;;
76039;SDS011;64736;50.462;4.850;2023-08-30T00:27:40;12.50;;;8.02;;
76039;SDS011;64736;50.462;4.850;2023-08-30T00:30:06;8.57;;;6.93;;
76039;SDS011;64736;50.462;4.850;2023-08-30T00:32:34;9.65;;;7.72;;
76039;SDS011;64736;50.462;4.850;2023-08-30T00:35:00;11.52;;;7.63;;
76039;SDS011;64736;50.462;4.850;2023-08-30T00:37:26;9.95;;;8.05;;
76039;SDS011;64736;50.462;4.850;2023-08-30T00:39:52;11.20;;;8.07;;
76039;SDS011;64736;50.462;4.850;2023-08-30T00:42:17;12.65;;;8.75;;
76039;SDS011;64736;50.462;4.850;2023-08-30T00:44:43;11.70;;;8.38;;
76039;SDS011;64736;50.462;4.850;2023-08-30T00:47:09;10.00;;;8.05;;
76039;SDS011;64736;50.462;4.850;2023-08-30T00:49:35;10.13;;;8.07;;
76039;SDS011;64736;50.462;4.850;2023-08-30T00:52:02;9.05;;;6.97;;
76039;SDS011;64736;50.462;4.850;2023-08-30T00:54:31;10.00;;;7.32;;
76039;SDS011;64736;50.462;4.850;2023-08-30T00:56:57;9.27;;;7.18;;
76039;SDS011;64736;50.462;4.850;2023-08-30T00:59:25;9.68;;;6.15;;
76039;SDS011;64736;50.462;4.850;2023-08-30T01:01:52;10.73;;;7.30;;
76039;SDS011;64736;50.462;4.850;2023-08-30T01:04:19;10.18;;;7.32;;
76039;SDS011;64736;50.462;4.850;2023-08-30T01:06:45;8.68;;;7.00;;
76039;SDS011;64736;50.462;4.850;2023-08-30T01:09:10;9.10;;;6.95;;
76039;SDS011;64736;50.462;4.850;2023-08-30T01:14:22;9.95;;;7.63;;
76039;SDS011;64736;50.462;4.850;2023-08-30T01:17:04;11.95;;;7.70;;
76039;SDS011;64736;50.462;4.850;2023-08-30T01:19:52;10.55;;;8.00;;
76039;SDS011;64736;50.462;4.850;2023-08-30T01:27:39;11.57;;;8.50;;
76039;SDS011;64736;50.462;4.850;2023-08-30T01:30:06;9.73;;;7.57;;
76039;SDS011;64736;50.462;4.850;2023-08-30T01:32:34;12.82;;;7.80;;
76039;SDS011;64736;50.462;4.850;2023-08-30T01:35:02;10.65;;;7.40;;
76039;SDS011;64736;50.462;4.850;2023-08-30T01:37:29;10.43;;;7.30;;
76039;SDS011;64736;50.462;4.850;2023-08-30T01:39:56;12.45;;;8.88;;
76039;SDS011;64736;50.462;4.850;2023-08-30T01:42:24;12.30;;;7.72;;
76039;SDS011;64736;50.462;4.850;2023-08-30T01:44:52;10.73;;;8.35;;
76039;SDS011;64736;50.462;4.850;2023-08-30T01:47:25;10.95;;;8.25;;
76039;SDS011;64736;50.462;4.850;2023-08-30T01:49:53;11.05;;;8.00;;
76039;SDS011;64736;50.462;4.850;2023-08-30T01:52:21;9.65;;;8.20;;
76039;SDS011;64736;50.462;4.850;2023-08-30T01:54:48;11.63;;;8.77;;
76039;SDS011;64736;50.462;4.850;2023-08-30T01:57:18;12.25;;;9.38;;
76039;SDS011;64736;50.462;4.850;2023-08-30T01:59:44;13.77;;;8.38;;
76039;SDS011;64736;50.462;4.850;2023-08-30T02:02:10;13.55;;;8.77;;
76039;SDS011;64736;50.462;4.850;2023-08-30T02:04:36;12.38;;;8.80;;
76039;SDS011;64736;50.462;4.850;2023-08-30T02:07:06;13.95;;;9.57;;
76039;SDS011;64736;50.462;4.850;2023-08-30T02:09:54;11.82;;;9.02;;
76039;SDS011;64736;50.462;4.850;2023-08-30T02:12:48;10.93;;;8.38;;
76039;SDS011;64736;50.462;4.850;2023-08-30T02:15:14;12.40;;;9.45;;
76039;SDS011;64736;50.462;4.850;2023-08-30T02:17:42;13.23;;;9.43;;
76039;SDS011;64736;50.462;4.850;2023-08-30T02:20:09;12.00;;;8.93;;
76039;SDS011;64736;50.462;4.850;2023-08-30T02:22:34;10.68;;;8.13;;
76039;SDS011;64736;50.462;4.850;2023-08-30T02:25:01;11.43;;;8.43;;
76039;SDS011;64736;50.462;4.850;2023-08-30T02:27:30;13.43;;;8.70;;
76039;SDS011;64736;50.462;4.850;2023-08-30T02:29:57;12.60;;;8.65;;
76039;SDS011;64736;50.462;4.850;2023-08-30T02:32:23;11.13;;;8.55;;
76039;SDS011;64736;50.462;4.850;2023-08-30T02:34:50;10.40;;;7.97;;
76039;SDS011;64736;50.462;4.850;2023-08-30T02:37:18;9.95;;;7.78;;
76039;SDS011;64736;50.462;4.850;2023-08-30T02:39:44;11.35;;;7.80;;
76039;SDS011;64736;50.462;4.850;2023-08-30T02:42:10;11.98;;;8.43;;
76039;SDS011;64736;50.462;4.850;2023-08-30T02:44:36;11.45;;;8.32;;
76039;SDS011;64736;50.462;4.850;2023-08-30T02:47:01;12.25;;;8.73;;
76039;SDS011;64736;50.462;4.850;2023-08-30T02:49:27;13.05;;;9.27;;
76039;SDS011;64736;50.462;4.850;2023-08-30T02:51:53;11.32;;;8.70;;
76039;SDS011;64736;50.462;4.850;2023-08-30T02:54:19;11.18;;;8.70;;
76039;SDS011;64736;50.462;4.850;2023-08-30T02:56:45;13.45;;;8.82;;
76039;SDS011;64736;50.462;4.850;2023-08-30T02:59:11;12.90;;;9.82;;
76039;SDS011;64736;50.462;4.850;2023-08-30T03:01:37;11.77;;;9.23;;
76039;SDS011;64736;50.462;4.850;2023-08-30T03:04:06;13.32;;;8.45;;
76039;SDS011;64736;50.462;4.850;2023-08-30T03:06:33;12.50;;;8.32;;
76039;SDS011;64736;50.462;4.850;2023-08-30T03:08:59;10.73;;;7.75;;
76039;SDS011;64736;50.462;4.850;2023-08-30T03:11:25;9.85;;;8.10;;
76039;SDS011;64736;50.462;4.850;2023-08-30T03:13:52;11.32;;;7.68;;
76039;SDS011;64736;50.462;4.850;2023-08-30T03:16:18;9.15;;;6.63;;
76039;SDS011;64736;50.462;4.850;2023-08-30T03:18:44;9.25;;;6.55;;
76039;SDS011;64736;50.462;4.850;2023-08-30T03:21:10;10.27;;;7.10;;
76039;SDS011;64736;50.462;4.850;2023-08-30T03:23:36;9.25;;;6.80;;
76039;SDS011;64736;50.462;4.850;2023-08-30T03:26:09;8.77;;;7.03;;
76039;SDS011;64736;50.462;4.850;2023-08-30T03:28:40;11.07;;;7.25;;
76039;SDS011;64736;50.462;4.850;2023-08-30T03:31:15;9.85;;;7.22;;
76039;SDS011;64736;50.462;4.850;2023-08-30T03:33:45;9.25;;;6.68;;
76039;SDS011;64736;50.462;4.850;2023-08-30T03:36:13;9.32;;;7.00;;
76039;SDS011;64736;50.462;4.850;2023-08-30T03:38:40;9.90;;;7.63;;
76039;SDS011;64736;50.462;4.850;2023-08-30T03:41:06;8.65;;;6.13;;
76039;SDS011;64736;50.462;4.850;2023-08-30T03:43:32;9.00;;;5.45;;
76039;SDS011;64736;50.462;4.850;2023-08-30T03:45:59;10.82;;;7.00;;
76039;SDS011;64736;50.462;4.850;2023-08-30T03:48:25;8.77;;;6.32;;
76039;SDS011;64736;50.462;4.850;2023-08-30T03:50:51;9.10;;;6.40;;
76039;SDS011;64736;50.462;4.850;2023-08-30T03:53:17;9.27;;;6.63;;
76039;SDS011;64736;50.462;4.850;2023-08-30T03:55:42;8.15;;;6.45;;
76039;SDS011;64736;50.462;4.850;2023-08-30T03:58:08;8.32;;;6.40;;
76039;SDS011;64736;50.462;4.850;2023-08-30T04:00:37;9.68;;;6.07;;
76039;SDS011;64736;50.462;4.850;2023-08-30T04:03:07;9.00;;;6.32;;
76039;SDS011;64736;50.462;4.850;2023-08-30T04:05:34;9.35;;;6.45;;
76039;SDS011;64736;50.462;4.850;2023-08-30T04:08:01;10.02;;;6.90;;
76039;SDS011;64736;50.462;4.850;2023-08-30T04:10:27;8.27;;;6.43;;
76039;SDS011;64736;50.462;4.850;2023-08-30T04:12:53;11.13;;;7.03;;
76039;SDS011;64736;50.462;4.850;2023-08-30T04:15:19;8.25;;;6.32;;
76039;SDS011;64736;50.462;4.850;2023-08-30T04:17:45;11.75;;;7.35;;
76039;SDS011;64736;50.462;4.850;2023-08-30T04:20:11;8.70;;;6.28;;
76039;SDS011;64736;50.462;4.850;2023-08-30T04:22:37;8.95;;;6.47;;
76039;SDS011;64736;50.462;4.850;2023-08-30T04:25:03;10.02;;;6.22;;
76039;SDS011;64736;50.462;4.850;2023-08-30T04:27:29;9.48;;;6.43;;
76039;SDS011;64736;50.462;4.850;2023-08-30T04:29:55;8.10;;;5.60;;
76039;SDS011;64736;50.462;4.850;2023-08-30T04:32:21;8.85;;;6.55;;
76039;SDS011;64736;50.462;4.850;2023-08-30T04:34:47;8.85;;;6.03;;
76039;SDS011;64736;50.462;4.850;2023-08-30T04:37:13;7.35;;;5.28;;
76039;SDS011;64736;50.462;4.850;2023-08-30T04:39:39;8.30;;;5.75;;
76039;SDS011;64736;50.462;4.850;2023-08-30T04:42:05;8.15;;;5.38;;
76039;SDS011;64736;50.462;4.850;2023-08-30T04:44:31;8.90;;;4.95;;
76039;SDS011;64736;50.462;4.850;2023-08-30T04:46:57;5.97;;;3.95;;
76039;SDS011;64736;50.462;4.850;2023-08-30T04:49:23;7.82;;;3.95;;
76039;SDS011;64736;50.462;4.850;2023-08-30T04:51:50;6.43;;;4.00;;
76039;SDS011;64736;50.462;4.850;2023-08-30T04:54:16;9.70;;;4.25;;
76039;SDS011;64736;50.462;4.850;2023-08-30T04:56:42;6.88;;;4.30;;
76039;SDS011;64736;50.462;4.850;2023-08-30T04:59:08;6.13;;;3.53;;
76039;SDS011;64736;50.462;4.850;2023-08-30T05:01:34;6.68;;;3.65;;
76039;SDS011;64736;50.462;4.850;2023-08-30T05:03:59;6.50;;;3.45;;
76039;SDS011;64736;50.462;4.850;2023-08-30T05:06:26;6.43;;;3.25;;
76039;SDS011;64736;50.462;4.850;2023-08-30T05:08:52;7.97;;;3.97;;
76039;SDS011;64736;50.462;4.850;2023-08-30T05:11:17;6.18;;;3.78;;
76039;SDS011;64736;50.462;4.850;2023-08-30T05:13:43;6.25;;;4.07;;
76039;SDS011;64736;50.462;4.850;2023-08-30T05:16:09;9.70;;;4.07;;
76039;SDS011;64736;50.462;4.850;2023-08-30T05:18:35;8.80;;;3.97;;
76039;SDS011;64736;50.462;4.850;2023-08-30T05:21:00;7.40;;;4.00;;
76039;SDS011;64736;50.462;4.850;2023-08-30T05:23:29;6.27;;;3.80;;
76039;SDS011;64736;50.462;4.850;2023-08-30T05:25:55;8.02;;;4.00;;
76039;SDS011;64736;50.462;4.850;2023-08-30T05:28:20;7.93;;;3.92;;
76039;SDS011;64736;50.462;4.850;2023-08-30T05:30:46;8.20;;;3.72;;
76039;SDS011;64736;50.462;4.850;2023-08-30T05:33:12;7.05;;;3.95;;
76039;SDS011;64736;50.462;4.850;2023-08-30T05:35:38;7.47;;;4.15;;
76039;SDS011;64736;50.462;4.850;2023-08-30T05:38:03;6.80;;;4.60;;
76039;SDS011;64736;50.462;4.850;2023-08-30T05:40:29;6.97;;;4.30;;
76039;SDS011;64736;50.462;4.850;2023-08-30T05:42:55;6.22;;;3.90;;
76039;SDS011;64736;50.462;4.850;2023-08-30T05:45:21;7.53;;;4.97;;
76039;SDS011;64736;50.462;4.850;2023-08-30T05:47:47;6.78;;;4.50;;
76039;SDS011;64736;50.462;4.850;2023-08-30T05:50:13;10.35;;;5.15;;
76039;SDS011;64736;50.462;4.850;2023-08-30T05:52:39;8.57;;;5.15;;
76039;SDS011;64736;50.462;4.850;2023-08-30T05:55:09;8.52;;;5.30;;
76039;SDS011;64736;50.462;4.850;2023-08-30T05:57:35;8.95;;;5.22;;
76039;SDS011;64736;50.462;4.850;2023-08-30T06:00:01;8.27;;;4.95;;
76039;SDS011;64736;50.462;4.850;2023-08-30T06:02:27;8.82;;;5.05;;
76039;SDS011;64736;50.462;4.850;2023-08-30T06:04:53;10.13;;;5.43;;
76039;SDS011;64736;50.462;4.850;2023-08-30T06:07:19;6.68;;;4.45;;
76039;SDS011;64736;50.462;4.850;2023-08-30T06:09:44;7.28;;;4.75;;
76039;SDS011;64736;50.462;4.850;2023-08-30T06:12:10;9.27;;;5.90;;
76039;SDS011;64736;50.462;4.850;2023-08-30T06:14:36;8.35;;;4.95;;
76039;SDS011;64736;50.462;4.850;2023-08-30T06:17:02;6.40;;;4.18;;
76039;SDS011;64736;50.462;4.850;2023-08-30T06:19:27;7.15;;;4.50;;
76039;SDS011;64736;50.462;4.850;2023-08-30T06:21:53;7.43;;;4.22;;
76039;SDS011;64736;50.462;4.850;2023-08-30T06:24:19;6.35;;;4.40;;
76039;SDS011;64736;50.462;4.850;2023-08-30T06:26:44;7.53;;;3.80;;
76039;SDS011;64736;50.462;4.850;2023-08-30T06:29:10;8.23;;;4.20;;
76039;SDS011;64736;50.462;4.850;2023-08-30T06:31:36;9.23;;;3.95;;
76039;SDS011;64736;50.462;4.850;2023-08-30T06:34:02;7.00;;;3.85;;
76039;SDS011;64736;50.462;4.850;2023-08-30T06:36:28;7.70;;;3.60;;
76039;SDS011;64736;50.462;4.850;2023-08-30T06:38:53;5.90;;;3.53;;
76039;SDS011;64736;50.462;4.850;2023-08-30T06:41:20;6.53;;;3.63;;
76039;SDS011;64736;50.462;4.850;2023-08-30T06:43:45;6.80;;;3.80;;
76039;SDS011;64736;50.462;4.850;2023-08-30T06:46:11;6.88;;;3.95;;
76039;SDS011;64736;50.462;4.850;2023-08-30T06:48:37;7.22;;;3.72;;
76039;SDS011;64736;50.462;4.850;2023-08-30T06:51:03;5.82;;;3.35;;
76039;SDS011;64736;50.462;4.850;2023-08-30T06:53:29;7.80;;;3.75;;
76039;SDS011;64736;50.462;4.850;2023-08-30T06:55:58;7.05;;;3.60;;
76039;SDS011;64736;50.462;4.850;2023-08-30T06:58:25;6.63;;;4.03;;
76039;SDS011;64736;50.462;4.850;2023-08-30T07:00:51;8.35;;;3.78;;
76039;SDS011;64736;50.462;4.850;2023-08-30T07:03:17;7.72;;;3.53;;
76039;SDS011;64736;50.462;4.850;2023-08-30T07:05:43;6.97;;;3.70;;
76039;SDS011;64736;50.462;4.850;2023-08-30T07:08:09;7.05;;;4.03;;
76039;SDS011;64736;50.462;4.850;2023-08-30T07:10:34;6.68;;;3.83;;
76039;SDS011;64736;50.462;4.850;2023-08-30T07:13:00;6.20;;;3.42;;
76039;SDS011;64736;50.462;4.850;2023-08-30T07:15:26;7.88;;;3.40;;
76039;SDS011;64736;50.462;4.850;2023-08-30T07:17:52;6.97;;;3.75;;
76039;SDS011;64736;50.462;4.850;2023-08-30T07:20:18;7.75;;;3.92;;
76039;SDS011;64736;50.462;4.850;2023-08-30T07:22:44;7.90;;;4.40;;
76039;SDS011;64736;50.462;4.850;2023-08-30T07:25:10;6.07;;;3.47;;
76039;SDS011;64736;50.462;4.850;2023-08-30T07:27:37;6.85;;;3.50;;
76039;SDS011;64736;50.462;4.850;2023-08-30T07:30:03;5.88;;;3.33;;
76039;SDS011;64736;50.462;4.850;2023-08-30T07:32:29;6.63;;;3.70;;
76039;SDS011;64736;50.462;4.850;2023-08-30T07:34:55;7.40;;;3.00;;
76039;SDS011;64736;50.462;4.850;2023-08-30T07:37:21;6.80;;;3.10;;
76039;SDS011;64736;50.462;4.850;2023-08-30T07:39:47;7.68;;;3.60;;
76039;SDS011;64736;50.462;4.850;2023-08-30T07:42:13;6.75;;;3.10;;
76039;SDS011;64736;50.462;4.850;2023-08-30T07:44:40;5.97;;;3.10;;
76039;SDS011;64736;50.462;4.850;2023-08-30T07:47:06;5.55;;;3.40;;
76039;SDS011;64736;50.462;4.850;2023-08-30T07:49:31;6.68;;;3.08;;
76039;SDS011;64736;50.462;4.850;2023-08-30T07:51:57;8.40;;;3.17;;
76039;SDS011;64736;50.462;4.850;2023-08-30T07:54:23;6.10;;;3.20;;
76039;SDS011;64736;50.462;4.850;2023-08-30T07:56:49;7.47;;;3.17;;
76039;SDS011;64736;50.462;4.850;2023-08-30T07:59:14;6.15;;;3.13;;
76039;SDS011;64736;50.462;4.850;2023-08-30T08:01:40;6.93;;;3.20;;
76039;SDS011;64736;50.462;4.850;2023-08-30T08:04:06;6.68;;;3.15;;
76039;SDS011;64736;50.462;4.850;2023-08-30T08:06:31;4.72;;;2.53;;
76039;SDS011;64736;50.462;4.850;2023-08-30T08:08:57;5.88;;;2.88;;
76039;SDS011;64736;50.462;4.850;2023-08-30T08:11:23;6.43;;;3.88;;
76039;SDS011;64736;50.462;4.850;2023-08-30T08:13:49;7.43;;;3.63;;
76039;SDS011;64736;50.462;4.850;2023-08-30T08:16:14;7.35;;;3.83;;
76039;SDS011;64736;50.462;4.850;2023-08-30T08:18:40;8.82;;;4.45;;
76039;SDS011;64736;50.462;4.850;2023-08-30T08:21:06;7.30;;;3.92;;
76039;SDS011;64736;50.462;4.850;2023-08-30T08:23:32;8.45;;;4.10;;
76039;SDS011;64736;50.462;4.850;2023-08-30T08:25:58;6.95;;;4.30;;
76039;SDS011;64736;50.462;4.850;2023-08-30T08:28:24;7.90;;;4.43;;
76039;SDS011;64736;50.462;4.850;2023-08-30T08:30:50;8.25;;;4.80;;
76039;SDS011;64736;50.462;4.850;2023-08-30T08:33:16;8.10;;;4.40;;
76039;SDS011;64736;50.462;4.850;2023-08-30T08:35:43;7.57;;;4.78;;
76039;SDS011;64736;50.462;4.850;2023-08-30T08:38:09;8.38;;;5.30;;
76039;SDS011;64736;50.462;4.850;2023-08-30T08:40:39;9.38;;;4.60;;
76039;SDS011;64736;50.462;4.850;2023-08-30T08:43:05;8.20;;;4.10;;
76039;SDS011;64736;50.462;4.850;2023-08-30T08:45:37;7.20;;;4.28;;
76039;SDS011;64736;50.462;4.850;2023-08-30T08:48:03;7.65;;;4.40;;
76039;SDS011;64736;50.462;4.850;2023-08-30T08:50:30;7.45;;;3.83;;
76039;SDS011;64736;50.462;4.850;2023-08-30T08:52:56;7.05;;;3.53;;
76039;SDS011;64736;50.462;4.850;2023-08-30T08:55:22;6.65;;;3.47;;
76039;SDS011;64736;50.462;4.850;2023-08-30T08:57:48;8.23;;;3.80;;
76039;SDS011;64736;50.462;4.850;2023-08-30T09:00:14;5.65;;;2.78;;
76039;SDS011;64736;50.462;4.850;2023-08-30T09:02:41;5.82;;;2.78;;
76039;SDS011;64736;50.462;4.850;2023-08-30T09:05:08;5.78;;;2.80;;
76039;SDS011;64736;50.462;4.850;2023-08-30T09:07:35;6.25;;;3.35;;
76039;SDS011;64736;50.462;4.850;2023-08-30T09:10:02;6.25;;;3.33;;
76039;SDS011;64736;50.462;4.850;2023-08-30T09:12:32;5.78;;;3.10;;
76039;SDS011;64736;50.462;4.850;2023-08-30T09:14:59;6.82;;;3.13;;
76039;SDS011;64736;50.462;4.850;2023-08-30T09:17:34;5.32;;;2.90;;
76039;SDS011;64736;50.462;4.850;2023-08-30T09:20:08;7.15;;;3.05;;
76039;SDS011;64736;50.462;4.850;2023-08-30T09:22:41;5.93;;;2.80;;
76039;SDS011;64736;50.462;4.850;2023-08-30T09:25:09;6.72;;;3.55;;
76039;SDS011;64736;50.462;4.850;2023-08-30T09:27:35;5.88;;;3.08;;
76039;SDS011;64736;50.462;4.850;2023-08-30T09:30:07;8.98;;;3.25;;
76039;SDS011;64736;50.462;4.850;2023-08-30T09:32:39;6.82;;;3.17;;
76039;SDS011;64736;50.462;4.850;2023-08-30T09:35:07;7.07;;;3.08;;
76039;SDS011;64736;50.462;4.850;2023-08-30T09:37:33;6.05;;;3.20;;
76039;SDS011;64736;50.462;4.850;2023-08-30T09:39:59;6.40;;;3.35;;
76039;SDS011;64736;50.462;4.850;2023-08-30T09:42:26;5.28;;;2.53;;
76039;SDS011;64736;50.462;4.850;2023-08-30T09:44:51;5.68;;;2.80;;
76039;SDS011;64736;50.462;4.850;2023-08-30T09:47:17;5.35;;;2.70;;
76039;SDS011;64736;50.462;4.850;2023-08-30T09:49:44;4.70;;;2.63;;
76039;SDS011;64736;50.462;4.850;2023-08-30T09:52:14;5.43;;;2.40;;
76039;SDS011;64736;50.462;4.850;2023-08-30T09:54:41;4.90;;;2.05;;
76039;SDS011;64736;50.462;4.850;2023-08-30T09:57:11;4.80;;;2.17;;
76039;SDS011;64736;50.462;4.850;2023-08-30T09:59:38;4.00;;;1.80;;
76039;SDS011;64736;50.462;4.850;2023-08-30T10:02:05;4.35;;;1.88;;
76039;SDS011;64736;50.462;4.850;2023-08-30T10:04:31;4.50;;;2.00;;
76039;SDS011;64736;50.462;4.850;2023-08-30T10:06:58;4.88;;;1.70;;
76039;SDS011;64736;50.462;4.850;2023-08-30T10:09:24;4.65;;;1.90;;
76039;SDS011;64736;50.462;4.850;2023-08-30T10:11:51;3.78;;;1.58;;
76039;SDS011;64736;50.462;4.850;2023-08-30T10:14:17;3.88;;;1.38;;
76039;SDS011;64736;50.462;4.850;2023-08-30T10:16:46;3.38;;;1.40;;
76039;SDS011;64736;50.462;4.850;2023-08-30T10:21:38;2.70;;;1.30;;
76039;SDS011;64736;50.462;4.850;2023-08-30T10:24:05;4.63;;;1.35;;
76039;SDS011;64736;50.462;4.850;2023-08-30T10:26:34;3.97;;;1.30;;
76039;SDS011;64736;50.462;4.850;2023-08-30T10:29:00;2.83;;;1.00;;
76039;SDS011;64736;50.462;4.850;2023-08-30T10:31:28;2.88;;;1.17;;
76039;SDS011;64736;50.462;4.850;2023-08-30T10:33:54;3.20;;;1.10;;
76039;SDS011;64736;50.462;4.850;2023-08-30T10:36:24;2.30;;;0.82;;
76039;SDS011;64736;50.462;4.850;2023-08-30T10:38:51;2.50;;;1.00;;
76039;SDS011;64736;50.462;4.850;2023-08-30T10:43:51;3.78;;;1.15;;
76039;SDS011;64736;50.462;4.850;2023-08-30T10:46:28;4.07;;;1.20;;
76039;SDS011;64736;50.462;4.850;2023-08-30T10:49:14;3.13;;;0.90;;
76039;SDS011;64736;50.462;4.850;2023-08-30T10:51:40;2.72;;;0.90;;
76039;SDS011;64736;50.462;4.850;2023-08-30T10:54:13;2.10;;;1.00;;
76039;SDS011;64736;50.462;4.850;2023-08-30T10:59:25;1.80;;;0.77;;
76039;SDS011;64736;50.462;4.850;2023-08-30T11:01:51;1.95;;;0.70;;
76039;SDS011;64736;50.462;4.850;2023-08-30T11:04:17;2.22;;;0.80;;
76039;SDS011;64736;50.462;4.850;2023-08-30T11:06:44;1.40;;;0.60;;
76039;SDS011;64736;50.462;4.850;2023-08-30T11:09:21;3.45;;;0.90;;
76039;SDS011;64736;50.462;4.850;2023-08-30T11:11:49;4.32;;;1.90;;
76039;SDS011;64736;50.462;4.850;2023-08-30T11:14:16;5.15;;;2.58;;
76039;SDS011;64736;50.462;4.850;2023-08-30T11:16:43;5.47;;;2.45;;
76039;SDS011;64736;50.462;4.850;2023-08-30T11:19:09;4.40;;;2.00;;
76039;SDS011;64736;50.462;4.850;2023-08-30T11:21:37;4.50;;;2.10;;
76039;SDS011;64736;50.462;4.850;2023-08-30T11:24:07;5.10;;;2.45;;
76039;SDS011;64736;50.462;4.850;2023-08-30T11:26:33;5.00;;;2.38;;
76039;SDS011;64736;50.462;4.850;2023-08-30T11:29:08;6.20;;;2.40;;
76039;SDS011;64736;50.462;4.850;2023-08-30T11:31:34;5.22;;;2.42;;
76039;SDS011;64736;50.462;4.850;2023-08-30T11:34:00;4.68;;;2.30;;
76039;SDS011;64736;50.462;4.850;2023-08-30T11:36:28;7.28;;;2.83;;
76039;SDS011;64736;50.462;4.850;2023-08-30T11:38:55;6.55;;;3.10;;
76039;SDS011;64736;50.462;4.850;2023-08-30T11:41:22;6.00;;;3.03;;
76039;SDS011;64736;50.462;4.850;2023-08-30T11:43:51;6.10;;;2.95;;
76039;SDS011;64736;50.462;4.850;2023-08-30T11:46:17;6.72;;;4.30;;
76039;SDS011;64736;50.462;4.850;2023-08-30T11:48:44;6.78;;;3.70;;
76039;SDS011;64736;50.462;4.850;2023-08-30T11:51:11;7.53;;;3.83;;
76039;SDS011;64736;50.462;4.850;2023-08-30T11:53:37;6.65;;;3.80;;
76039;SDS011;64736;50.462;4.850;2023-08-30T11:56:04;6.68;;;3.78;;
76039;SDS011;64736;50.462;4.850;2023-08-30T11:58:34;8.48;;;4.18;;
76039;SDS011;64736;50.462;4.850;2023-08-30T12:01:01;7.93;;;4.20;;
76039;SDS011;64736;50.462;4.850;2023-08-30T12:03:28;8.05;;;4.20;;
76039;SDS011;64736;50.462;4.850;2023-08-30T12:05:55;8.68;;;4.93;;
76039;SDS011;64736;50.462;4.850;2023-08-30T12:08:25;8.25;;;4.32;;
76039;SDS011;64736;50.462;4.850;2023-08-30T12:10:52;7.50;;;4.43;;
76039;SDS011;64736;50.462;4.850;2023-08-30T12:13:26;7.70;;;4.20;;
76039;SDS011;64736;50.462;4.850;2023-08-30T12:15:53;8.02;;;4.43;;
76039;SDS011;64736;50.462;4.850;2023-08-30T12:18:20;8.65;;;4.43;;
76039;SDS011;64736;50.462;4.850;2023-08-30T12:20:53;7.85;;;4.32;;
76039;SDS011;64736;50.462;4.850;2023-08-30T12:23:19;8.60;;;4.43;;
76039;SDS011;64736;50.462;4.850;2023-08-30T12:25:58;7.93;;;4.57;;
76039;SDS011;64736;50.462;4.850;2023-08-30T12:28:36;8.38;;;3.92;;
76039;SDS011;64736;50.462;4.850;2023-08-30T12:31:03;7.75;;;4.35;;
76039;SDS011;64736;50.462;4.850;2023-08-30T12:33:30;7.00;;;4.00;;
76039;SDS011;64736;50.462;4.850;2023-08-30T12:35:56;7.55;;;4.18;;
76039;SDS011;64736;50.462;4.850;2023-08-30T12:38:23;7.43;;;4.10;;
76039;SDS011;64736;50.462;4.850;2023-08-30T12:40:50;8.27;;;4.32;;
76039;SDS011;64736;50.462;4.850;2023-08-30T12:43:17;7.15;;;4.28;;
76039;SDS011;64736;50.462;4.850;2023-08-30T12:45:44;8.43;;;5.13;;
76039;SDS011;64736;50.462;4.850;2023-08-30T12:48:10;8.50;;;4.75;;
76039;SDS011;64736;50.462;4.850;2023-08-30T12:50:38;8.35;;;5.15;;
76039;SDS011;64736;50.462;4.850;2023-08-30T12:53:04;7.15;;;4.68;;
76039;SDS011;64736;50.462;4.850;2023-08-30T12:55:31;8.15;;;5.15;;
76039;SDS011;64736;50.462;4.850;2023-08-30T12:57:57;9.35;;;5.55;;
76039;SDS011;64736;50.462;4.850;2023-08-30T13:00:23;8.13;;;4.60;;
76039;SDS011;64736;50.462;4.850;2023-08-30T13:02:50;7.68;;;4.55;;
76039;SDS011;64736;50.462;4.850;2023-08-30T13:05:16;6.25;;;4.43;;
76039;SDS011;64736;50.462;4.850;2023-08-30T13:07:42;8.05;;;4.50;;
76039;SDS011;64736;50.462;4.850;2023-08-30T13:10:08;8.52;;;4.78;;
76039;SDS011;64736;50.462;4.850;2023-08-30T13:12:34;8.13;;;4.75;;
76039;SDS011;64736;50.462;4.850;2023-08-30T13:15:01;8.15;;;5.10;;
76039;SDS011;64736;50.462;4.850;2023-08-30T13:17:27;8.82;;;5.28;;
76039;SDS011;64736;50.462;4.850;2023-08-30T13:19:53;6.35;;;4.68;;
76039;SDS011;64736;50.462;4.850;2023-08-30T13:22:19;8.00;;;4.57;;
76039;SDS011;64736;50.462;4.850;2023-08-30T13:24:44;11.60;;;4.63;;
76039;SDS011;64736;50.462;4.850;2023-08-30T13:27:12;7.45;;;3.45;;
76039;SDS011;64736;50.462;4.850;2023-08-30T13:29:38;6.50;;;3.20;;
76039;SDS011;64736;50.462;4.850;2023-08-30T13:32:04;7.55;;;3.22;;
76039;SDS011;64736;50.462;4.850;2023-08-30T13:34:30;5.78;;;3.33;;
76039;SDS011;64736;50.462;4.850;2023-08-30T13:36:55;8.27;;;3.53;;
76039;SDS011;64736;50.462;4.850;2023-08-30T13:39:21;7.63;;;3.60;;
76039;SDS011;64736;50.462;4.850;2023-08-30T13:41:47;9.48;;;4.13;;
76039;SDS011;64736;50.462;4.850;2023-08-30T13:44:13;7.65;;;3.67;;
76039;SDS011;64736;50.462;4.850;2023-08-30T13:46:39;7.95;;;3.20;;
76039;SDS011;64736;50.462;4.850;2023-08-30T13:49:05;7.45;;;3.10;;
76039;SDS011;64736;50.462;4.850;2023-08-30T13:51:31;6.40;;;3.38;;
76039;SDS011;64736;50.462;4.850;2023-08-30T13:53:57;5.93;;;3.15;;
76039;SDS011;64736;50.462;4.850;2023-08-30T13:56:23;6.43;;;2.60;;
76039;SDS011;64736;50.462;4.850;2023-08-30T13:58:49;6.25;;;2.65;;
76039;SDS011;64736;50.462;4.850;2023-08-30T14:01:15;8.60;;;2.90;;
76039;SDS011;64736;50.462;4.850;2023-08-30T14:03:42;7.05;;;2.47;;
76039;SDS011;64736;50.462;4.850;2023-08-30T14:06:08;7.10;;;2.80;;
76039;SDS011;64736;50.462;4.850;2023-08-30T14:08:34;10.43;;;4.30;;
76039;SDS011;64736;50.462;4.850;2023-08-30T14:11:00;6.28;;;2.60;;
76039;SDS011;64736;50.462;4.850;2023-08-30T14:13:26;7.18;;;3.25;;
76039;SDS011;64736;50.462;4.850;2023-08-30T14:15:53;7.65;;;2.60;;
76039;SDS011;64736;50.462;4.850;2023-08-30T14:18:19;7.25;;;2.65;;
76039;SDS011;64736;50.462;4.850;2023-08-30T14:20:45;5.90;;;2.47;;
76039;SDS011;64736;50.462;4.850;2023-08-30T14:23:10;7.88;;;2.88;;
76039;SDS011;64736;50.462;4.850;2023-08-30T14:25:36;6.93;;;2.80;;
76039;SDS011;64736;50.462;4.850;2023-08-30T14:28:02;6.82;;;2.40;;
76039;SDS011;64736;50.462;4.850;2023-08-30T14:30:31;6.15;;;2.75;;
76039;SDS011;64736;50.462;4.850;2023-08-30T14:32:57;6.03;;;2.75;;
76039;SDS011;64736;50.462;4.850;2023-08-30T14:35:22;5.45;;;2.90;;
76039;SDS011;64736;50.462;4.850;2023-08-30T14:37:50;5.13;;;2.50;;
76039;SDS011;64736;50.462;4.850;2023-08-30T14:40:15;11.20;;;3.55;;
76039;SDS011;64736;50.462;4.850;2023-08-30T14:42:41;5.65;;;2.75;;
76039;SDS011;64736;50.462;4.850;2023-08-30T14:45:07;7.90;;;3.20;;
76039;SDS011;64736;50.462;4.850;2023-08-30T14:47:33;6.55;;;3.20;;
76039;SDS011;64736;50.462;4.850;2023-08-30T14:49:59;6.32;;;3.38;;
76039;SDS011;64736;50.462;4.850;2023-08-30T14:52:29;8.50;;;3.67;;
76039;SDS011;64736;50.462;4.850;2023-08-30T14:54:55;6.88;;;3.50;;
76039;SDS011;64736;50.462;4.850;2023-08-30T14:57:21;6.60;;;3.60;;
76039;SDS011;64736;50.462;4.850;2023-08-30T14:59:47;5.95;;;3.28;;
76039;SDS011;64736;50.462;4.850;2023-08-30T15:02:14;5.43;;;2.95;;